createdAt,value
2018-09-19T00:01:45.923Z,9.00
2018-09-19T00:04:13.151Z,8.35
2018-09-19T00:06:40.391Z,8.78
2018-09-19T00:09:08.292Z,9.20
2018-09-19T00:11:35.453Z,8.43
2018-09-19T00:14:02.657Z,8.13
2018-09-19T00:16:29.823Z,7.62
2018-09-19T00:18:56.992Z,8.58
2018-09-19T00:21:24.174Z,9.10
2018-09-19T00:23:51.348Z,8.88
2018-09-19T00:26:18.531Z,8.33
2018-09-19T00:28:45.847Z,7.90
2018-09-19T00:31:13.044Z,8.18
2018-09-19T00:33:40.304Z,7.80
2018-09-19T00:36:07.491Z,8.00
2018-09-19T00:38:34.672Z,9.00
2018-09-19T00:41:01.856Z,9.78
2018-09-19T00:43:29.060Z,10.40
2018-09-19T00:45:56.244Z,9.83
2018-09-19T00:48:23.432Z,10.35
2018-09-19T00:50:50.629Z,8.33
2018-09-19T00:53:17.815Z,8.78
2018-09-19T00:55:44.974Z,7.80
2018-09-19T00:58:12.163Z,9.78
2018-09-19T01:00:39.348Z,9.98
2018-09-19T01:03:06.532Z,9.58
2018-09-19T01:05:33.723Z,9.03
2018-09-19T01:08:00.898Z,9.63
2018-09-19T01:10:28.096Z,10.50
2018-09-19T01:12:55.273Z,10.40
2018-09-19T01:15:22.438Z,12.15
2018-09-19T01:17:49.628Z,10.20
2018-09-19T01:20:16.786Z,9.53
2018-09-19T01:22:43.976Z,9.53
2018-09-19T01:25:11.156Z,9.95
2018-09-19T01:27:38.346Z,10.03
2018-09-19T01:30:05.791Z,12.30
2018-09-19T01:32:32.971Z,9.88
2018-09-19T01:35:00.165Z,10.80
2018-09-19T01:37:27.434Z,10.93
2018-09-19T01:39:54.656Z,9.05
2018-09-19T01:42:21.838Z,10.45
2018-09-19T01:44:49.026Z,11.33
2018-09-19T01:47:16.255Z,10.25
2018-09-19T01:49:43.432Z,11.33
2018-09-19T01:52:10.622Z,10.15
2018-09-19T01:54:37.805Z,10.45
2018-09-19T01:57:04.989Z,9.05
2018-09-19T01:59:32.197Z,10.38
2018-09-19T02:01:59.368Z,8.90
2018-09-19T02:04:26.652Z,9.38
2018-09-19T02:06:53.830Z,10.55
2018-09-19T02:09:21.015Z,10.00
2018-09-19T02:11:48.184Z,8.70
2018-09-19T02:14:15.362Z,10.38
2018-09-19T02:16:42.539Z,10.85
2018-09-19T02:19:09.955Z,7.62
2018-09-19T02:21:37.295Z,9.95
2018-09-19T02:24:04.479Z,10.60
2018-09-19T02:26:31.806Z,10.08
2018-09-19T02:28:58.966Z,9.98
2018-09-19T02:31:26.317Z,11.00
2018-09-19T02:33:53.971Z,10.25
2018-09-19T02:36:25.305Z,9.33
2018-09-19T02:38:53.808Z,10.32
2018-09-19T02:41:21.366Z,12.23
2018-09-19T02:43:49.006Z,8.90
2018-09-19T02:46:16.270Z,10.05
2018-09-19T02:48:44.015Z,8.90
2018-09-19T02:51:11.192Z,10.23
2018-09-19T02:53:38.370Z,9.88
2018-09-19T02:56:05.544Z,9.95
2018-09-19T02:58:32.722Z,11.22
2018-09-19T03:00:59.890Z,10.72
2018-09-19T03:03:27.061Z,10.20
2018-09-19T03:05:54.345Z,10.15
2018-09-19T03:08:21.592Z,12.82
2018-09-19T03:10:48.822Z,10.65
2018-09-19T03:13:16.042Z,11.48
2018-09-19T03:15:43.293Z,12.28
2018-09-19T03:18:10.543Z,12.33
2018-09-19T03:20:37.837Z,12.60
2018-09-19T03:23:05.113Z,11.10
2018-09-19T03:25:32.416Z,12.15
2018-09-19T03:27:59.698Z,10.70
2018-09-19T03:30:27.862Z,9.83
2018-09-19T03:32:55.153Z,10.40
2018-09-19T03:35:22.459Z,10.03
2018-09-19T03:37:49.750Z,12.82
2018-09-19T03:40:17.052Z,9.53
2018-09-19T03:42:44.553Z,8.90
2018-09-19T03:45:11.844Z,10.00
2018-09-19T03:47:39.116Z,9.53
2018-09-19T03:50:06.418Z,11.00
2018-09-19T03:52:33.683Z,11.80
2018-09-19T03:55:01.027Z,10.25
2018-09-19T03:57:28.333Z,12.47
2018-09-19T03:59:55.618Z,11.93
2018-09-19T04:02:22.879Z,11.35
2018-09-19T04:04:50.169Z,12.05
2018-09-19T04:07:17.454Z,11.45
2018-09-19T04:09:44.808Z,11.90
2018-09-19T04:12:12.093Z,10.98
2018-09-19T04:14:39.362Z,11.22
2018-09-19T04:17:06.656Z,12.13
2018-09-19T04:19:33.957Z,12.00
2018-09-19T04:22:01.252Z,11.05
2018-09-19T04:24:28.532Z,10.72
2018-09-19T04:26:55.888Z,11.30
2018-09-19T04:29:23.182Z,10.35
2018-09-19T04:31:50.466Z,9.38
2018-09-19T04:34:17.741Z,11.05
2018-09-19T04:36:45.138Z,11.35
2018-09-19T04:39:13.218Z,11.05
2018-09-19T04:41:40.509Z,10.32
2018-09-19T04:44:08.652Z,14.45
2018-09-19T04:46:36.507Z,10.90
2018-09-19T04:49:04.053Z,10.25
2018-09-19T04:51:31.451Z,9.70
2018-09-19T04:53:58.763Z,10.25
2018-09-19T04:56:26.061Z,10.63
2018-09-19T04:58:53.335Z,10.38
2018-09-19T05:01:20.634Z,11.80
2018-09-19T05:03:47.940Z,11.60
2018-09-19T05:06:15.229Z,11.28
2018-09-19T05:08:42.587Z,10.30
2018-09-19T05:11:09.977Z,11.45
2018-09-19T05:13:37.260Z,11.57
2018-09-19T05:16:04.533Z,10.40
2018-09-19T05:18:31.817Z,10.45
2018-09-19T05:20:59.129Z,9.88
2018-09-19T05:23:26.420Z,8.68
2018-09-19T05:25:53.690Z,10.90
2018-09-19T05:28:21.018Z,9.78
2018-09-19T05:30:48.753Z,10.48
2018-09-19T05:33:16.025Z,9.33
2018-09-19T05:35:43.344Z,11.30
2018-09-19T05:38:10.621Z,8.13
2018-09-19T05:40:37.908Z,9.28
2018-09-19T05:43:05.203Z,8.30
2018-09-19T05:45:32.494Z,9.60
2018-09-19T05:47:59.773Z,9.18
2018-09-19T05:50:27.081Z,10.03
2018-09-19T05:52:54.382Z,8.55
2018-09-19T05:55:21.673Z,9.95
2018-09-19T05:57:48.962Z,9.43
2018-09-19T06:00:16.243Z,10.00
2018-09-19T06:02:43.547Z,10.28
2018-09-19T06:05:10.909Z,8.85
2018-09-19T06:07:38.139Z,9.33
2018-09-19T06:10:05.661Z,9.80
2018-09-19T06:12:32.983Z,9.20
2018-09-19T06:15:00.290Z,10.03
2018-09-19T06:17:27.635Z,9.28
2018-09-19T06:19:54.907Z,8.28
2018-09-19T06:22:22.191Z,18.42
2018-09-19T06:24:49.439Z,8.78
2018-09-19T06:27:16.747Z,8.63
2018-09-19T06:29:44.040Z,7.17
2018-09-19T06:32:11.340Z,8.85
2018-09-19T06:34:38.689Z,6.97
2018-09-19T06:37:06.054Z,7.37
2018-09-19T06:39:33.271Z,8.40
2018-09-19T06:42:00.614Z,7.55
2018-09-19T06:44:27.921Z,6.70
2018-09-19T06:46:55.252Z,6.40
2018-09-19T06:49:22.485Z,6.12
2018-09-19T06:51:49.809Z,6.33
2018-09-19T06:54:17.068Z,5.75
2018-09-19T06:56:44.344Z,5.83
2018-09-19T06:59:11.672Z,6.25
2018-09-19T07:01:38.938Z,7.47
2018-09-19T07:04:06.226Z,5.75
2018-09-19T07:06:33.672Z,6.87
2018-09-19T07:09:00.965Z,6.03
2018-09-19T07:11:28.252Z,7.53
2018-09-19T07:13:55.570Z,5.45
2018-09-19T07:16:22.855Z,6.35
2018-09-19T07:18:50.158Z,6.08
2018-09-19T07:21:17.424Z,6.10
2018-09-19T07:23:44.748Z,4.95
2018-09-19T07:26:12.003Z,4.90
2018-09-19T07:28:39.289Z,4.92
2018-09-19T07:31:06.610Z,4.80
2018-09-19T07:33:33.957Z,4.72
2018-09-19T07:36:01.244Z,4.65
2018-09-19T07:38:28.535Z,5.03
2018-09-19T07:40:55.818Z,4.78
2018-09-19T07:43:23.119Z,4.55
2018-09-19T07:45:50.405Z,4.87
2018-09-19T07:48:17.686Z,4.95
2018-09-19T07:50:44.989Z,4.78
2018-09-19T07:53:12.294Z,4.40
2018-09-19T07:55:39.579Z,4.75
2018-09-19T07:58:06.887Z,4.70
2018-09-19T08:00:34.314Z,4.78
2018-09-19T08:03:01.549Z,5.15
2018-09-19T08:05:28.861Z,4.60
2018-09-19T08:07:56.182Z,4.95
2018-09-19T08:10:23.502Z,5.20
2018-09-19T08:12:51.007Z,4.03
2018-09-19T08:15:18.464Z,4.70
2018-09-19T08:17:45.768Z,4.58
2018-09-19T08:20:13.035Z,4.40
2018-09-19T08:22:40.363Z,4.90
2018-09-19T08:25:07.653Z,4.22
2018-09-19T08:27:34.929Z,4.40
2018-09-19T08:30:02.250Z,4.83
2018-09-19T08:32:29.528Z,5.05
2018-09-19T08:34:56.917Z,4.78
2018-09-19T08:37:24.455Z,4.67
2018-09-19T08:39:51.763Z,4.65
2018-09-19T08:42:19.040Z,4.83
2018-09-19T08:44:46.328Z,4.85
2018-09-19T08:47:13.628Z,4.28
2018-09-19T08:49:40.913Z,4.60
2018-09-19T08:52:08.352Z,4.22
2018-09-19T08:54:35.677Z,4.17
2018-09-19T08:57:02.987Z,3.75
2018-09-19T08:59:30.226Z,4.25
2018-09-19T09:01:57.506Z,3.75
2018-09-19T09:04:24.824Z,3.92
2018-09-19T09:06:52.247Z,3.72
2018-09-19T09:09:19.634Z,3.10
2018-09-19T09:11:46.977Z,4.35
2018-09-19T09:14:14.276Z,3.50
2018-09-19T09:16:41.568Z,3.83
2018-09-19T09:19:08.842Z,3.75
2018-09-19T09:21:36.111Z,4.30
2018-09-19T09:24:03.393Z,3.75
2018-09-19T09:26:30.699Z,3.90
2018-09-19T09:28:58.058Z,3.62
2018-09-19T09:31:25.545Z,3.50
2018-09-19T09:33:52.835Z,3.62
2018-09-19T09:36:20.096Z,4.00
2018-09-19T09:38:47.389Z,4.05
2018-09-19T09:41:14.770Z,4.15
2018-09-19T09:43:42.103Z,3.25
2018-09-19T09:46:09.466Z,3.37
2018-09-19T09:48:36.704Z,3.87
2018-09-19T09:51:04.004Z,3.35
2018-09-19T09:55:58.544Z,3.50
2018-09-19T09:58:25.824Z,4.03
2018-09-19T10:00:53.166Z,3.47
2018-09-19T10:03:20.424Z,4.12
2018-09-19T10:05:47.751Z,3.80
2018-09-19T10:08:15.023Z,3.00
2018-09-19T10:10:42.359Z,3.55
2018-09-19T10:13:09.659Z,3.22
2018-09-19T10:15:36.968Z,3.42
2018-09-19T10:18:04.241Z,3.45
2018-09-19T10:20:31.567Z,2.90
2018-09-19T10:22:58.848Z,2.80
2018-09-19T10:25:26.306Z,2.95
2018-09-19T10:27:53.612Z,3.70
2018-09-19T10:30:20.882Z,3.25
2018-09-19T10:32:48.167Z,3.35
2018-09-19T10:35:15.461Z,3.27
2018-09-19T10:37:42.749Z,2.80
2018-09-19T10:40:10.074Z,3.70
2018-09-19T10:42:37.338Z,4.17
2018-09-19T10:45:04.872Z,2.85
2018-09-19T10:47:32.196Z,3.27
2018-09-19T10:49:59.484Z,3.52
2018-09-19T10:52:26.763Z,3.20
2018-09-19T10:54:54.032Z,3.50
2018-09-19T10:57:21.304Z,2.83
2018-09-19T10:59:48.612Z,3.42
2018-09-19T11:02:15.878Z,2.98
2018-09-19T11:04:43.160Z,2.87
2018-09-19T11:07:10.431Z,3.15
2018-09-19T11:09:37.715Z,3.00
2018-09-19T11:12:05.012Z,2.47
2018-09-19T11:14:32.271Z,3.08
2018-09-19T11:16:59.743Z,2.90
2018-09-19T11:19:27.085Z,3.45
2018-09-19T11:21:54.389Z,2.90
2018-09-19T11:24:21.672Z,2.83
2018-09-19T11:26:48.940Z,3.00
2018-09-19T11:29:16.218Z,2.90
2018-09-19T11:31:43.643Z,3.23
2018-09-19T11:34:10.946Z,3.17
2018-09-19T11:36:38.220Z,3.50
2018-09-19T11:39:07.381Z,2.90
2018-09-19T11:41:34.666Z,2.33
2018-09-19T11:44:01.935Z,2.90
2018-09-19T11:46:29.270Z,2.40
2018-09-19T11:48:56.549Z,2.77
2018-09-19T11:51:23.822Z,3.00
2018-09-19T11:53:51.121Z,2.90
2018-09-19T11:56:18.492Z,3.20
2018-09-19T11:58:45.778Z,2.80
2018-09-19T12:01:13.067Z,2.50
2018-09-19T12:03:40.348Z,2.40
2018-09-19T12:06:07.624Z,2.87
2018-09-19T12:08:34.916Z,2.90
2018-09-19T12:11:02.213Z,2.63
2018-09-19T12:13:29.472Z,2.77
2018-09-19T12:15:56.735Z,3.07
2018-09-19T12:18:24.016Z,2.90
2018-09-19T12:20:51.313Z,2.53
2018-09-19T12:23:18.584Z,2.47
2018-09-19T12:25:45.877Z,2.57
2018-09-19T12:28:13.175Z,2.43
2018-09-19T12:30:40.477Z,2.87
2018-09-19T12:33:07.769Z,2.30
2018-09-19T12:35:35.047Z,2.30
2018-09-19T12:38:02.433Z,2.40
2018-09-19T12:40:29.736Z,2.80
2018-09-19T12:42:57.008Z,2.17
2018-09-19T12:45:24.289Z,2.43
2018-09-19T12:47:51.659Z,1.70
2018-09-19T12:50:19.193Z,2.40
2018-09-19T12:52:46.548Z,2.27
2018-09-19T12:55:13.868Z,2.30
2018-09-19T12:57:41.172Z,2.87
2018-09-19T13:00:08.476Z,2.40
2018-09-19T13:02:35.845Z,2.30
2018-09-19T13:05:03.119Z,2.30
2018-09-19T13:07:30.561Z,2.70
2018-09-19T13:09:57.844Z,2.20
2018-09-19T13:12:25.192Z,2.00
2018-09-19T13:14:52.496Z,1.87
2018-09-19T13:17:19.771Z,1.57
2018-09-19T13:19:47.045Z,2.10
2018-09-19T13:22:14.331Z,2.10
2018-09-19T13:24:41.620Z,1.90
2018-09-19T13:27:08.896Z,2.60
2018-09-19T13:29:36.195Z,1.73
2018-09-19T13:32:03.459Z,2.10
2018-09-19T13:34:30.735Z,1.70
2018-09-19T13:36:58.099Z,1.90
2018-09-19T13:39:25.370Z,2.40
2018-09-19T13:41:52.685Z,2.07
2018-09-19T13:44:19.956Z,2.00
2018-09-19T13:46:47.287Z,2.13
2018-09-19T13:49:21.970Z,2.13
2018-09-19T13:51:49.274Z,2.50
2018-09-19T13:54:16.569Z,2.20
2018-09-19T13:56:43.889Z,2.20
2018-09-19T13:59:11.156Z,2.33
2018-09-19T14:01:38.432Z,2.50
2018-09-19T14:04:05.864Z,2.37
2018-09-19T14:06:33.145Z,2.20
2018-09-19T14:09:00.435Z,1.90
2018-09-19T14:11:27.707Z,1.97
2018-09-19T14:13:54.979Z,1.80
2018-09-19T14:16:22.247Z,2.83
2018-09-19T14:18:49.520Z,2.50
2018-09-19T14:21:16.825Z,2.43
2018-09-19T14:23:44.137Z,2.40
2018-09-19T14:26:11.561Z,1.83
2018-09-19T14:28:38.844Z,2.40
2018-09-19T14:31:06.128Z,2.03
2018-09-19T14:33:33.432Z,2.50
2018-09-19T14:36:00.800Z,2.40
2018-09-19T14:38:28.103Z,2.40
2018-09-19T14:40:55.381Z,2.03
2018-09-19T14:43:22.756Z,2.60
2018-09-19T14:45:50.065Z,2.40
2018-09-19T14:48:17.327Z,2.70
2018-09-19T14:50:44.681Z,2.57
2018-09-19T14:53:11.958Z,2.70
2018-09-19T14:55:39.303Z,2.13
2018-09-19T14:58:06.589Z,3.10
2018-09-19T15:00:33.876Z,2.20
2018-09-19T15:03:01.134Z,2.30
2018-09-19T15:05:28.416Z,2.37
2018-09-19T15:07:55.744Z,2.20
2018-09-19T15:10:23.128Z,2.20
2018-09-19T15:12:50.449Z,2.73
2018-09-19T15:15:17.785Z,2.90
2018-09-19T15:17:45.077Z,2.80
2018-09-19T15:20:12.356Z,2.77
2018-09-19T15:22:39.636Z,2.10
2018-09-19T15:25:06.908Z,3.07
2018-09-19T15:27:34.237Z,3.10
2018-09-19T15:30:01.484Z,2.40
2018-09-19T15:32:28.784Z,2.80
2018-09-19T15:34:56.076Z,2.30
2018-09-19T15:37:23.396Z,2.43
2018-09-19T15:39:50.683Z,2.00
2018-09-19T15:42:17.979Z,2.80
2018-09-19T15:44:45.243Z,2.47
2018-09-19T15:47:12.525Z,2.03
2018-09-19T15:49:39.843Z,2.50
2018-09-19T15:52:07.112Z,2.10
2018-09-19T15:54:34.397Z,2.10
2018-09-19T15:57:01.697Z,2.30
2018-09-19T15:59:28.988Z,3.10
2018-09-19T16:01:56.263Z,2.90
2018-09-19T16:04:23.527Z,2.60
2018-09-19T16:06:50.845Z,2.90
2018-09-19T16:09:18.145Z,2.57
2018-09-19T16:11:45.427Z,2.17
2018-09-19T16:14:12.772Z,2.70
2018-09-19T16:16:40.061Z,2.90
2018-09-19T16:19:07.339Z,2.90
2018-09-19T16:21:34.624Z,2.40
2018-09-19T16:24:01.929Z,2.63
2018-09-19T16:26:29.252Z,2.70
2018-09-19T16:28:56.572Z,2.67
2018-09-19T16:31:23.854Z,2.20
2018-09-19T16:33:51.120Z,2.07
2018-09-19T16:36:18.397Z,2.33
2018-09-19T16:38:45.960Z,2.40
2018-09-19T16:41:13.295Z,2.80
2018-09-19T16:43:40.571Z,3.30
2018-09-19T16:46:07.880Z,2.87
2018-09-19T16:48:35.164Z,3.33
2018-09-19T16:51:02.439Z,3.37
2018-09-19T16:53:29.711Z,4.10
2018-09-19T16:55:57.125Z,3.87
2018-09-19T16:58:24.432Z,4.87
2018-09-19T17:00:51.704Z,3.97
2018-09-19T17:03:18.995Z,4.37
2018-09-19T17:05:46.299Z,4.60
2018-09-19T17:08:13.588Z,5.20
2018-09-19T17:10:41.327Z,4.70
2018-09-19T17:13:08.716Z,4.60
2018-09-19T17:15:36.062Z,4.43
2018-09-19T17:18:03.531Z,5.10
2018-09-19T17:20:30.844Z,4.37
2018-09-19T17:22:58.240Z,4.83
2018-09-19T17:25:25.584Z,4.87
2018-09-19T17:27:52.909Z,4.60
2018-09-19T17:30:20.221Z,4.80
2018-09-19T17:32:47.503Z,5.60
2018-09-19T17:35:14.772Z,4.17
2018-09-19T17:37:42.049Z,4.20
2018-09-19T17:40:09.487Z,5.10
2018-09-19T17:42:36.760Z,4.90
2018-09-19T17:45:04.108Z,4.93
2018-09-19T17:47:31.406Z,5.00
2018-09-19T17:49:58.772Z,13.30
2018-09-19T17:52:26.033Z,8.20
2018-09-19T17:54:53.300Z,5.57
2018-09-19T17:57:20.564Z,5.67
2018-09-19T17:59:47.836Z,5.45
2018-09-19T18:02:15.116Z,4.50
2018-09-19T18:04:42.411Z,8.43
2018-09-19T18:07:09.785Z,5.50
2018-09-19T18:09:37.072Z,6.67
2018-09-19T18:12:04.413Z,8.68
2018-09-19T18:14:31.712Z,11.80
2018-09-19T18:16:59.216Z,6.87
2018-09-19T18:19:26.515Z,6.25
2018-09-19T18:21:53.849Z,10.15
2018-09-19T18:24:21.129Z,6.50
2018-09-19T18:26:48.411Z,5.33
2018-09-19T18:29:15.772Z,5.10
2018-09-19T18:31:43.424Z,4.80
2018-09-19T18:34:10.801Z,9.50
2018-09-19T18:36:38.141Z,7.25
2018-09-19T18:39:05.740Z,4.45
2018-09-19T18:41:33.015Z,12.82
2018-09-19T18:44:00.284Z,5.08
2018-09-19T18:46:27.580Z,7.67
2018-09-19T18:48:54.860Z,5.80
2018-09-19T18:51:22.130Z,6.17
2018-09-19T18:53:49.412Z,6.05
2018-09-19T18:56:16.691Z,5.83
2018-09-19T18:58:43.984Z,5.58
2018-09-19T19:01:11.262Z,5.70
2018-09-19T19:03:38.637Z,7.58
2018-09-19T19:06:05.951Z,6.90
2018-09-19T19:08:33.215Z,5.75
2018-09-19T19:11:00.488Z,6.78
2018-09-19T19:13:27.754Z,5.67
2018-09-19T19:15:55.065Z,7.90
2018-09-19T19:18:22.340Z,5.08
2018-09-19T19:20:49.660Z,5.67
2018-09-19T19:23:17.028Z,5.90
2018-09-19T19:25:44.316Z,5.15
2018-09-19T19:28:11.628Z,6.90
2018-09-19T19:30:38.973Z,10.93
2018-09-19T19:33:06.217Z,41.30
2018-09-19T19:35:33.501Z,7.22
2018-09-19T19:38:00.825Z,5.67
2018-09-19T19:40:28.102Z,6.62
2018-09-19T19:42:55.463Z,5.70
2018-09-19T19:45:22.768Z,6.37
2018-09-19T19:47:50.097Z,4.92
2018-09-19T19:50:17.401Z,4.33
2018-09-19T19:52:44.688Z,4.55
2018-09-19T19:55:12.039Z,7.00
2018-09-19T19:57:39.321Z,5.58
2018-09-19T20:00:06.629Z,6.05
2018-09-19T20:02:33.927Z,5.05
2018-09-19T20:05:01.215Z,5.40
2018-09-19T20:07:28.502Z,5.95
2018-09-19T20:09:55.875Z,5.70
2018-09-19T20:12:23.182Z,5.00
2018-09-19T20:14:50.476Z,6.30
2018-09-19T20:17:17.829Z,4.42
2018-09-19T20:19:45.271Z,5.17
2018-09-19T20:22:12.579Z,4.75
2018-09-19T20:24:40.300Z,4.35
2018-09-19T20:27:07.960Z,5.28
2018-09-19T20:29:35.332Z,4.87
2018-09-19T20:32:02.617Z,5.10
2018-09-19T20:34:29.905Z,5.45
2018-09-19T20:36:57.201Z,5.70
2018-09-19T20:39:24.500Z,4.53
2018-09-19T20:41:51.782Z,4.95
2018-09-19T20:44:19.129Z,6.00
2018-09-19T20:46:46.405Z,6.12
2018-09-19T20:49:13.704Z,5.85
2018-09-19T20:51:41.002Z,5.70
2018-09-19T20:54:08.276Z,5.00
2018-09-19T20:56:35.577Z,5.72
2018-09-19T20:59:02.850Z,5.95
2018-09-19T21:01:30.129Z,6.10
2018-09-19T21:03:57.432Z,6.67
2018-09-19T21:06:24.713Z,5.70
2018-09-19T21:08:52.052Z,6.03
2018-09-19T21:11:19.332Z,18.40
2018-09-19T21:13:46.647Z,7.08
2018-09-19T21:16:13.922Z,5.92
2018-09-19T21:18:41.211Z,4.62
2018-09-19T21:21:08.727Z,5.30
2018-09-19T21:23:36.006Z,6.40
2018-09-19T21:26:03.320Z,5.30
2018-09-19T21:28:30.822Z,5.45
2018-09-19T21:30:58.233Z,5.08
2018-09-19T21:33:25.540Z,5.90
2018-09-19T21:35:52.836Z,4.33
2018-09-19T21:38:20.174Z,4.90
2018-09-19T21:40:47.483Z,4.50
2018-09-19T21:43:14.780Z,7.75
2018-09-19T21:45:42.191Z,6.12
2018-09-19T21:48:09.497Z,8.83
2018-09-19T21:50:36.791Z,4.78
2018-09-19T21:53:04.068Z,5.40
2018-09-19T21:55:31.352Z,5.65
2018-09-19T21:57:58.656Z,4.70
2018-09-19T22:00:25.977Z,5.10
2018-09-19T22:02:53.260Z,5.22
2018-09-19T22:05:20.584Z,4.37
2018-09-19T22:07:47.867Z,3.90
2018-09-19T22:10:15.209Z,6.78
2018-09-19T22:12:42.530Z,6.45
2018-09-19T22:15:09.800Z,5.28
2018-09-19T22:17:37.189Z,5.08
2018-09-19T22:20:04.483Z,5.60
2018-09-19T22:22:31.753Z,4.80
2018-09-19T22:24:59.041Z,5.33
2018-09-19T22:27:26.354Z,4.65
2018-09-19T22:29:53.633Z,4.45
2018-09-19T22:32:20.929Z,6.20
2018-09-19T22:34:48.194Z,5.12
2018-09-19T22:37:15.484Z,6.33
2018-09-19T22:39:42.752Z,6.55
2018-09-19T22:42:10.093Z,4.58
2018-09-19T22:44:37.384Z,5.70
2018-09-19T22:47:04.668Z,8.73
2018-09-19T22:49:31.932Z,5.42
2018-09-19T22:51:59.215Z,5.03
2018-09-19T22:54:26.493Z,5.60
2018-09-19T22:56:53.769Z,5.40
2018-09-19T22:59:21.159Z,5.53
2018-09-19T23:01:48.433Z,5.72
2018-09-19T23:04:15.794Z,5.95
2018-09-19T23:06:43.089Z,5.05
2018-09-19T23:09:10.360Z,6.00
2018-09-19T23:11:37.624Z,6.55
2018-09-19T23:14:04.883Z,5.10
2018-09-19T23:16:32.147Z,6.17
2018-09-19T23:18:59.429Z,5.55
2018-09-19T23:21:26.707Z,5.20
2018-09-19T23:23:53.996Z,6.72
2018-09-19T23:26:21.281Z,6.28
2018-09-19T23:28:48.564Z,5.10
2018-09-19T23:31:15.853Z,5.92
2018-09-19T23:33:43.139Z,5.33
2018-09-19T23:36:10.434Z,5.50
2018-09-19T23:38:37.740Z,5.42
2018-09-19T23:41:05.045Z,4.65
2018-09-19T23:43:32.344Z,5.17
2018-09-19T23:45:59.618Z,5.35
2018-09-19T23:48:26.895Z,6.15
2018-09-19T23:50:54.200Z,4.75
2018-09-19T23:53:21.475Z,6.60
2018-09-19T23:55:48.789Z,6.50
2018-09-19T23:58:16.072Z,6.70
